Main page
METAR-TAF:

METAR-TAF

Airports :

Pakse International Airport

Pakxe, Laos

latitude: 15-08-02N, longitude: 105-46-55E, elevation: 107 m

Current weather observation

The report was made 2 hours and 38 minutes ago, at 04:00 UTC
Wind 2 kt from the East
Temperature 26°C
Humidity 89%
Pressure 1007 hPa
Visibility 10 km or more
Scattered clouds at a height of 1700 ft
Broken clouds at a height of 5000 ft

METAR: VLPS 190400Z 09002KT 9999 SCT017 BKN050 26/24 Q1007 NOSIG RMK REDZ

Time: 13:38 (06:38 UTC)

Forecast

The report was made 1 hour and 38 minutes ago, at 05:00 UTC
Forecast valid from 19 at 06 UTC to 20 at 06 UTC
Wind 8 kt from the Southwest
Visibility: 8000 m
Scattered clouds at a height of 1700 ft
Broken clouds at a height of 5000 ft

TAF: VLPS 190500Z 1906/2006 22008KT 8000 SCT017 BKN050

Weather observations and forecasts of more than 4000 airports (METAR and TAF reports).

The available stations are represented by yellow and red dots on the map.

Hover mouse over dot to see the name of the station.

Then click to see weather observations and forecasts.

To change the map : click on the green buttons with a black cross to zoom in, on the green button with a dash to zoom out, or on the green arrows for adjacent maps.


METAR-TAF: